createdAt,value
2023-05-11T00:00:53.466Z,75.95
2023-05-11T00:01:53.446Z,75.95
2023-05-11T00:02:53.527Z,75.74
2023-05-11T00:03:53.526Z,76.25
2023-05-11T00:04:53.429Z,76.04
2023-05-11T00:05:53.402Z,76.15
2023-05-11T00:06:53.412Z,76.15
2023-05-11T00:07:53.382Z,76.04
2023-05-11T00:08:53.377Z,76.65
2023-05-11T00:09:53.359Z,75.98
2023-05-11T00:10:53.348Z,76.15
2023-05-11T00:11:53.371Z,76.55
2023-05-11T00:12:53.325Z,76.75
2023-05-11T00:13:53.317Z,76.79
2023-05-11T00:14:53.328Z,76.18
2023-05-11T00:15:53.386Z,76.18
2023-05-11T00:16:53.292Z,76.08
2023-05-11T00:17:53.352Z,76.55
2023-05-11T00:18:53.300Z,76.48
2023-05-11T00:19:53.384Z,76.08
2023-05-11T00:20:53.267Z,76.59
2023-05-11T00:21:53.229Z,76.25
2023-05-11T00:22:53.215Z,76.18
2023-05-11T00:23:53.218Z,76.48
2023-05-11T00:24:53.231Z,76.48
2023-05-11T00:25:53.185Z,76.28
2023-05-11T00:26:53.180Z,76.08
2023-05-11T00:27:53.164Z,75.98
2023-05-11T00:28:53.160Z,76.18
2023-05-11T00:29:53.150Z,75.98
2023-05-11T00:30:53.173Z,76.22
2023-05-11T00:31:53.147Z,76.32
2023-05-11T00:32:53.136Z,75.81
2023-05-11T00:33:53.111Z,76.12
2023-05-11T00:34:53.115Z,76.12
2023-05-11T00:35:53.070Z,76.46
2023-05-11T00:36:53.066Z,76.32
2023-05-11T00:37:53.077Z,76.42
2023-05-11T00:38:53.061Z,75.85
2023-05-11T00:39:53.045Z,76.26
2023-05-11T00:40:53.040Z,76.35
2023-05-11T00:41:53.008Z,76.26
2023-05-11T00:42:53.002Z,76.26
2023-05-11T00:43:53.002Z,76.56
2023-05-11T00:44:52.990Z,76.56
2023-05-11T00:45:52.960Z,76.97
2023-05-11T00:46:52.999Z,76.56
2023-05-11T00:47:52.998Z,76.66
2023-05-11T00:48:52.923Z,76.97
2023-05-11T00:49:52.924Z,77.30
2023-05-11T00:50:52.907Z,77.17
2023-05-11T00:51:52.895Z,77.17
2023-05-11T00:52:52.898Z,77.26
2023-05-11T00:53:52.881Z,76.70
2023-05-11T00:54:52.866Z,77.50
2023-05-11T00:55:52.849Z,77.30
2023-05-11T00:56:52.849Z,77.91
2023-05-11T00:57:52.846Z,77.97
2023-05-11T00:58:52.818Z,77.91
2023-05-11T00:59:52.816Z,77.91
2023-05-11T01:00:52.857Z,77.91
2023-05-11T01:01:52.807Z,77.91
2023-05-11T01:02:52.903Z,77.67
2023-05-11T01:03:52.775Z,77.81
2023-05-11T01:04:52.775Z,77.71
2023-05-11T01:05:52.746Z,77.50
2023-05-11T01:06:52.762Z,77.61
2023-05-11T01:07:52.722Z,77.50
2023-05-11T01:08:52.723Z,78.05
2023-05-11T01:09:52.743Z,78.25
2023-05-11T01:10:52.707Z,78.25
2023-05-11T01:11:52.704Z,78.35
2023-05-11T01:12:52.667Z,78.15
2023-05-11T01:13:52.660Z,78.31
2023-05-11T01:14:52.656Z,78.05
2023-05-11T01:15:52.688Z,78.05
2023-05-11T01:16:52.661Z,78.66
2023-05-11T01:17:52.696Z,78.66
2023-05-11T01:18:52.713Z,78.55
2023-05-11T01:19:52.640Z,78.25
2023-05-11T01:20:52.595Z,78.55
2023-05-11T01:21:52.575Z,78.96
2023-05-11T01:22:52.576Z,78.45
2023-05-11T01:23:52.556Z,78.96
2023-05-11T01:24:52.582Z,78.96
2023-05-11T01:25:52.532Z,79.57
2023-05-11T01:26:52.521Z,79.46
2023-05-11T01:27:52.510Z,79.60
2023-05-11T01:28:52.530Z,79.80
2023-05-11T01:29:52.494Z,79.50
2023-05-11T01:30:52.482Z,79.50
2023-05-11T01:31:52.523Z,79.50
2023-05-11T01:32:52.468Z,79.30
2023-05-11T01:33:52.453Z,79.30
2023-05-11T01:34:52.495Z,79.50
2023-05-11T01:35:52.427Z,79.50
2023-05-11T01:36:52.410Z,79.80
2023-05-11T01:37:52.404Z,79.40
2023-05-11T01:38:52.414Z,79.60
2023-05-11T01:39:52.380Z,79.80
2023-05-11T01:40:52.366Z,79.80
2023-05-11T01:41:52.356Z,79.91
2023-05-11T01:42:52.350Z,80.11
2023-05-11T01:43:52.352Z,79.91
2023-05-11T01:44:52.323Z,80.25
2023-05-11T01:45:52.354Z,80.45
2023-05-11T01:46:52.302Z,80.15
2023-05-11T01:47:52.322Z,80.45
2023-05-11T01:48:52.290Z,80.15
2023-05-11T01:49:52.264Z,80.35
2023-05-11T01:50:52.283Z,80.15
2023-05-11T01:51:52.251Z,79.94
2023-05-11T01:52:52.236Z,79.94
2023-05-11T01:53:52.239Z,80.15
2023-05-11T01:54:52.217Z,79.74
2023-05-11T01:55:52.218Z,79.74
2023-05-11T01:56:52.193Z,79.64
2023-05-11T01:57:52.202Z,79.64
2023-05-11T01:58:52.187Z,79.54
2023-05-11T01:59:52.158Z,79.64
2023-05-11T02:00:52.154Z,79.64
2023-05-11T02:01:52.214Z,79.64
2023-05-11T02:02:52.165Z,79.54
2023-05-11T02:03:52.113Z,79.64
2023-05-11T02:04:52.106Z,79.94
2023-05-11T02:05:52.091Z,79.94
2023-05-11T02:06:52.102Z,79.64
2023-05-11T02:07:52.083Z,79.94
2023-05-11T02:08:52.088Z,79.94
2023-05-11T02:09:52.049Z,80.25
2023-05-11T02:10:52.059Z,79.85
2023-05-11T02:11:52.029Z,79.64
2023-05-11T02:12:52.037Z,79.74
2023-05-11T02:13:52.005Z,79.74
2023-05-11T02:14:52.002Z,79.64
2023-05-11T02:15:52.008Z,79.34
2023-05-11T02:16:52.113Z,79.44
2023-05-11T02:17:51.993Z,79.74
2023-05-11T02:18:52.064Z,79.64
2023-05-11T02:19:51.941Z,79.47
2023-05-11T02:20:51.940Z,79.54
2023-05-11T02:21:51.931Z,79.64
2023-05-11T02:22:51.930Z,79.68
2023-05-11T02:23:51.913Z,80.39
2023-05-11T02:24:51.893Z,80.39
2023-05-11T02:25:51.876Z,80.39
2023-05-11T02:26:51.875Z,80.19
2023-05-11T02:27:51.856Z,80.08
2023-05-11T02:28:51.847Z,80.08
2023-05-11T02:29:51.834Z,80.08
2023-05-11T02:30:51.845Z,79.78
2023-05-11T02:31:51.897Z,80.02
2023-05-11T02:32:51.872Z,80.08
2023-05-11T02:33:52.760Z,80.43
2023-05-11T02:34:51.791Z,80.22
2023-05-11T02:35:51.787Z,80.19
2023-05-11T02:36:51.776Z,80.73
2023-05-11T02:37:51.746Z,80.22
2023-05-11T02:38:51.755Z,80.39
2023-05-11T02:39:51.726Z,80.12
2023-05-11T02:40:51.742Z,80.22
2023-05-11T02:41:51.701Z,80.22
2023-05-11T02:42:51.694Z,80.12
2023-05-11T02:43:51.685Z,80.53
2023-05-11T02:44:51.684Z,80.73
2023-05-11T02:45:51.718Z,80.63
2023-05-11T02:46:51.723Z,80.53
2023-05-11T02:47:51.680Z,80.83
2023-05-11T02:48:51.634Z,80.83
2023-05-11T02:49:51.642Z,80.16
2023-05-11T02:50:51.606Z,79.75
2023-05-11T02:51:51.594Z,80.06
2023-05-11T02:52:51.586Z,80.06
2023-05-11T02:53:51.574Z,79.96
2023-05-11T02:54:51.594Z,79.96
2023-05-11T02:55:51.552Z,80.19
2023-05-11T02:56:51.558Z,80.26
2023-05-11T02:57:51.562Z,80.60
2023-05-11T02:58:51.523Z,80.91
2023-05-11T02:59:51.514Z,81.11
2023-05-11T03:00:51.575Z,81.31
2023-05-11T03:01:51.713Z,81.11
2023-05-11T03:02:51.616Z,81.52
2023-05-11T03:03:51.614Z,80.80
2023-05-11T03:04:51.458Z,81.01
2023-05-11T03:05:51.482Z,81.31
2023-05-11T03:06:51.438Z,81.01
2023-05-11T03:07:51.429Z,81.25
2023-05-11T03:08:51.432Z,80.64
2023-05-11T03:09:51.406Z,80.03
2023-05-11T03:10:51.426Z,80.03
2023-05-11T03:11:51.382Z,80.33
2023-05-11T03:12:51.368Z,79.90
2023-05-11T03:13:51.371Z,79.83
2023-05-11T03:14:51.346Z,79.93
2023-05-11T03:15:51.340Z,79.49
2023-05-11T03:16:51.356Z,79.08
2023-05-11T03:17:51.328Z,78.67
2023-05-11T03:18:51.371Z,78.81
2023-05-11T03:19:51.329Z,78.91
2023-05-11T03:20:51.288Z,79.83
2023-05-11T03:21:51.272Z,79.93
2023-05-11T03:22:51.278Z,79.72
2023-05-11T03:23:51.245Z,79.72
2023-05-11T03:24:51.264Z,80.03
2023-05-11T03:25:51.225Z,79.93
2023-05-11T03:26:51.237Z,79.69
2023-05-11T03:27:51.202Z,79.22
2023-05-11T03:28:51.229Z,78.91
2023-05-11T03:29:51.203Z,79.22
2023-05-11T03:30:51.175Z,79.16
2023-05-11T03:31:51.464Z,79.72
2023-05-11T03:32:51.233Z,79.72
2023-05-11T03:33:51.184Z,79.63
2023-05-11T03:34:51.131Z,79.72
2023-05-11T03:35:51.137Z,79.52
2023-05-11T03:36:51.122Z,79.72
2023-05-11T03:37:51.126Z,79.63
2023-05-11T03:38:51.089Z,79.52
2023-05-11T03:39:51.103Z,79.52
2023-05-11T03:40:51.068Z,79.69
2023-05-11T03:41:51.076Z,78.88
2023-05-11T03:42:51.062Z,78.88
2023-05-11T03:43:51.713Z,78.47
2023-05-11T03:44:51.032Z,78.23
2023-05-11T03:45:51.053Z,78.84
2023-05-11T03:46:51.026Z,77.83
2023-05-11T03:47:51.059Z,78.17
2023-05-11T03:48:50.978Z,76.95
2023-05-11T03:49:50.989Z,76.71
2023-05-11T03:50:50.973Z,76.20
2023-05-11T03:51:50.962Z,76.44
2023-05-11T03:52:50.937Z,76.61
2023-05-11T03:53:50.978Z,75.93
2023-05-11T03:54:50.914Z,75.59
2023-05-11T03:55:50.976Z,75.19
2023-05-11T03:56:50.909Z,75.73
2023-05-11T03:57:50.880Z,75.73
2023-05-11T03:58:50.886Z,75.83
2023-05-11T03:59:50.860Z,75.22
2023-05-11T04:00:50.859Z,75.12
2023-05-11T04:01:50.837Z,74.71
2023-05-11T04:02:50.914Z,75.32
2023-05-11T04:03:50.934Z,75.26
2023-05-11T04:04:51.009Z,75.22
2023-05-11T04:05:50.820Z,74.92
2023-05-11T04:06:50.780Z,74.71
2023-05-11T04:07:50.770Z,75.02
2023-05-11T04:08:50.755Z,74.71
2023-05-11T04:09:50.762Z,74.62
2023-05-11T04:10:50.737Z,74.71
2023-05-11T04:11:50.728Z,74.58
2023-05-11T04:12:50.736Z,74.71
2023-05-11T04:13:50.711Z,74.38
2023-05-11T04:14:50.713Z,74.27
2023-05-11T04:15:53.718Z,74.48
2023-05-11T04:16:50.705Z,74.27
2023-05-11T04:17:50.695Z,74.07
2023-05-11T04:18:50.667Z,74.04
2023-05-11T04:19:50.666Z,73.53
2023-05-11T04:20:50.625Z,73.83
2023-05-11T04:21:50.621Z,73.43
2023-05-11T04:22:50.605Z,72.92
2023-05-11T04:23:50.612Z,73.33
2023-05-11T04:24:50.587Z,73.02
2023-05-11T04:25:50.585Z,73.02
2023-05-11T04:26:50.561Z,73.26
2023-05-11T04:27:50.554Z,73.87
2023-05-11T04:28:50.560Z,74.17
2023-05-11T04:29:50.526Z,74.41
2023-05-11T04:30:50.538Z,74.71
2023-05-11T04:31:50.580Z,74.21
2023-05-11T04:32:50.553Z,74.65
2023-05-11T04:33:50.499Z,74.75
2023-05-11T04:34:50.474Z,75.36
2023-05-11T04:35:50.462Z,75.76
2023-05-11T04:36:50.456Z,76.48
2023-05-11T04:37:50.622Z,76.17
2023-05-11T04:38:50.437Z,76.34
2023-05-11T04:39:50.431Z,75.52
2023-05-11T04:40:50.446Z,76.34
2023-05-11T04:41:50.398Z,76.44
2023-05-11T04:42:50.408Z,75.09
2023-05-11T04:43:50.385Z,75.09
2023-05-11T04:44:50.369Z,75.19
2023-05-11T04:45:50.355Z,74.27
2023-05-11T04:46:50.467Z,74.78
2023-05-11T04:47:50.386Z,74.54
2023-05-11T04:48:50.327Z,74.65
2023-05-11T04:49:50.321Z,74.44
2023-05-11T04:50:50.300Z,74.51
2023-05-11T04:51:50.310Z,74.51
2023-05-11T04:52:50.306Z,73.66
2023-05-11T04:53:50.551Z,73.49
2023-05-11T04:54:50.270Z,73.39
2023-05-11T04:55:50.247Z,73.05
2023-05-11T04:56:50.295Z,73.02
2023-05-11T04:57:50.225Z,72.75
2023-05-11T04:58:50.217Z,73.02
2023-05-11T04:59:50.241Z,72.81
2023-05-11T05:00:50.215Z,72.52
2023-05-11T05:01:50.194Z,72.17
2023-05-11T05:02:50.226Z,71.26
2023-05-11T05:03:50.199Z,70.45
2023-05-11T05:04:50.149Z,70.93
2023-05-11T05:05:50.206Z,71.37
2023-05-11T05:06:50.169Z,70.25
2023-05-11T05:07:50.117Z,69.78
2023-05-11T05:08:50.131Z,71.03
2023-05-11T05:09:50.097Z,71.84
2023-05-11T05:10:50.094Z,71.53
2023-05-11T05:11:50.075Z,71.33
2023-05-11T05:12:50.085Z,71.73
2023-05-11T05:13:50.068Z,70.93
2023-05-11T05:14:50.056Z,71.37
2023-05-11T05:15:50.033Z,70.62
2023-05-11T05:16:50.049Z,70.62
2023-05-11T05:17:50.071Z,71.13
2023-05-11T05:18:50.092Z,70.39
2023-05-11T05:19:49.992Z,70.18
2023-05-11T05:20:49.976Z,70.08
2023-05-11T05:21:49.976Z,70.18
2023-05-11T05:22:49.984Z,71.09
2023-05-11T05:23:49.954Z,70.15
2023-05-11T05:24:49.964Z,70.25
2023-05-11T05:25:57.662Z,71.06
2023-05-11T05:26:49.916Z,70.36
2023-05-11T05:27:49.908Z,69.61
2023-05-11T05:28:49.894Z,69.41
2023-05-11T05:29:49.900Z,69.21
2023-05-11T05:30:49.905Z,69.61
2023-05-11T05:31:49.865Z,69.41
2023-05-11T05:32:49.921Z,69.58
2023-05-11T05:33:49.864Z,69.38
2023-05-11T05:34:49.875Z,68.97
2023-05-11T05:35:49.820Z,67.52
2023-05-11T05:36:49.814Z,67.32
2023-05-11T05:37:49.803Z,67.02
2023-05-11T05:38:49.812Z,67.72
2023-05-11T05:39:49.778Z,67.66
2023-05-11T05:40:49.766Z,67.86
2023-05-11T05:41:49.766Z,67.86
2023-05-11T05:42:49.746Z,67.93
2023-05-11T05:43:49.749Z,67.52
2023-05-11T05:44:49.718Z,67.52
2023-05-11T05:45:49.733Z,67.83
2023-05-11T05:46:49.695Z,67.72
2023-05-11T05:47:49.767Z,67.46
2023-05-11T05:48:49.707Z,67.32
2023-05-11T05:49:49.668Z,67.32
2023-05-11T05:50:49.676Z,66.69
2023-05-11T05:51:49.646Z,66.96
2023-05-11T05:52:49.662Z,66.15
2023-05-11T05:53:49.625Z,65.75
2023-05-11T05:54:49.621Z,65.92
2023-05-11T05:55:49.621Z,64.81
2023-05-11T05:56:49.585Z,64.87
2023-05-11T05:57:49.583Z,64.07
2023-05-11T05:58:49.569Z,64.07
2023-05-11T05:59:49.580Z,63.29
2023-05-11T06:00:49.558Z,64.00
2023-05-11T06:01:49.545Z,64.70
2023-05-11T06:02:49.647Z,64.53
2023-05-11T06:03:49.662Z,64.50
2023-05-11T06:04:49.531Z,65.41
2023-05-11T06:05:49.501Z,64.10
2023-05-11T06:06:49.511Z,63.39
2023-05-11T06:08:01.863Z,63.29
2023-05-11T06:08:50.455Z,64.10
2023-05-11T06:09:49.444Z,64.17
2023-05-11T06:10:49.437Z,63.23
2023-05-11T06:11:49.444Z,62.85
2023-05-11T06:12:49.415Z,62.96
2023-05-11T06:13:49.405Z,62.12
2023-05-11T06:14:49.393Z,61.92
2023-05-11T06:15:49.518Z,62.12
2023-05-11T06:16:49.410Z,62.90
2023-05-11T06:17:49.435Z,62.70
2023-05-11T06:18:49.364Z,63.50
2023-05-11T06:19:49.335Z,62.90
2023-05-11T06:20:49.389Z,60.88
2023-05-11T06:21:49.326Z,61.36
2023-05-11T06:22:49.314Z,61.76
2023-05-11T06:23:49.295Z,62.06
2023-05-11T06:24:49.286Z,62.19
2023-05-11T06:25:49.293Z,61.86
2023-05-11T06:26:49.326Z,61.36
2023-05-11T06:27:49.294Z,59.42
2023-05-11T06:28:49.296Z,60.02
2023-05-11T06:29:49.256Z,60.02
2023-05-11T06:30:49.245Z,60.22
2023-05-11T06:31:49.275Z,60.12
2023-05-11T06:32:49.261Z,60.19
2023-05-11T06:33:49.259Z,58.48
2023-05-11T06:34:49.202Z,57.28
2023-05-11T06:35:49.183Z,57.37
2023-05-11T06:36:49.158Z,57.55
2023-05-11T06:37:49.211Z,56.04
2023-05-11T06:38:49.170Z,56.11
2023-05-11T06:39:49.152Z,56.51
2023-05-11T06:40:49.112Z,56.01
2023-05-11T06:41:49.118Z,56.31
2023-05-11T06:42:49.096Z,55.88
2023-05-11T06:43:49.099Z,55.68
2023-05-11T06:44:49.148Z,55.96
2023-05-11T06:45:49.130Z,53.52
2023-05-11T06:46:49.062Z,54.00
2023-05-11T06:47:49.093Z,53.52
2023-05-11T06:48:49.081Z,53.30
2023-05-11T06:49:49.119Z,53.90
2023-05-11T06:50:49.017Z,52.94
2023-05-11T06:51:49.005Z,52.12
2023-05-11T06:52:49.004Z,51.19
2023-05-11T06:53:49.021Z,51.49
2023-05-11T06:54:49.025Z,50.19
2023-05-11T06:55:49.013Z,51.39
2023-05-11T06:56:48.959Z,51.01
2023-05-11T06:57:48.934Z,52.09
2023-05-11T06:58:48.962Z,51.79
2023-05-11T06:59:48.907Z,51.19
2023-05-11T07:00:48.947Z,50.76
2023-05-11T07:01:48.895Z,51.25
2023-05-11T07:02:48.969Z,49.99
2023-05-11T07:03:48.875Z,49.32
2023-05-11T07:04:48.878Z,50.22
2023-05-11T07:05:48.858Z,49.79
2023-05-11T07:06:48.827Z,49.97
2023-05-11T07:07:48.837Z,49.65
2023-05-11T07:08:48.820Z,48.52
2023-05-11T07:09:48.796Z,47.00
2023-05-11T07:10:48.887Z,47.22
2023-05-11T07:11:48.777Z,47.65
2023-05-11T07:12:48.789Z,49.15
2023-05-11T07:13:48.752Z,49.35
2023-05-11T07:14:48.749Z,49.02
2023-05-11T07:15:48.737Z,48.02
2023-05-11T07:16:48.779Z,48.72
2023-05-11T07:17:48.742Z,48.90
2023-05-11T07:18:48.737Z,46.88
2023-05-11T07:19:48.704Z,46.86
2023-05-11T07:20:48.683Z,46.84
2023-05-11T07:21:48.691Z,45.42
2023-05-11T07:22:48.676Z,44.72
2023-05-11T07:23:48.660Z,45.52
2023-05-11T07:24:48.637Z,45.24
2023-05-11T07:25:48.624Z,46.56
2023-05-11T07:26:48.724Z,46.16
2023-05-11T07:27:48.605Z,46.24
2023-05-11T07:28:48.591Z,45.54
2023-05-11T07:29:48.644Z,45.02
2023-05-11T07:30:48.583Z,44.28
2023-05-11T07:31:48.704Z,44.85
2023-05-11T07:32:48.598Z,44.64
2023-05-11T07:33:48.559Z,44.02
2023-05-11T07:34:48.548Z,44.00
2023-05-11T07:35:48.521Z,43.68
2023-05-11T07:36:48.506Z,43.96
2023-05-11T07:37:48.496Z,42.35
2023-05-11T07:38:48.501Z,42.65
2023-05-11T07:39:48.476Z,43.02
2023-05-11T07:40:48.541Z,41.93
2023-05-11T07:41:48.454Z,41.26
2023-05-11T07:42:49.179Z,41.89
2023-05-11T07:43:48.466Z,42.83
2023-05-11T07:44:48.449Z,43.40
2023-05-11T07:45:48.439Z,42.99
2023-05-11T07:46:48.534Z,42.83
2023-05-11T07:47:48.416Z,43.52
2023-05-11T07:48:48.385Z,42.80
2023-05-11T07:49:48.431Z,43.60
2023-05-11T07:50:48.358Z,43.28
2023-05-11T07:51:48.356Z,42.85
2023-05-11T07:52:49.370Z,42.55
2023-05-11T07:53:48.336Z,41.41
2023-05-11T07:54:48.360Z,40.72
2023-05-11T07:55:48.351Z,41.36
2023-05-11T07:56:48.307Z,43.16
2023-05-11T07:57:48.301Z,43.66
2023-05-11T07:58:48.318Z,42.92
2023-05-11T07:59:48.297Z,41.33
2023-05-11T08:00:48.257Z,41.30
2023-05-11T08:01:48.277Z,41.87
2023-05-11T08:02:48.489Z,40.58
2023-05-11T08:03:48.290Z,39.87
2023-05-11T08:04:48.232Z,40.25
2023-05-11T08:05:48.237Z,39.34
2023-05-11T08:06:48.198Z,38.76
2023-05-11T08:07:48.188Z,39.40
2023-05-11T08:08:48.201Z,40.01
2023-05-11T08:09:48.182Z,40.60
2023-05-11T08:10:48.194Z,39.79
2023-05-11T08:11:48.163Z,40.07
2023-05-11T08:12:48.131Z,37.60
2023-05-11T08:13:48.126Z,39.29
2023-05-11T08:14:48.157Z,39.50
2023-05-11T08:15:48.119Z,39.89
2023-05-11T08:16:48.096Z,39.67
2023-05-11T08:17:48.113Z,38.80
2023-05-11T08:18:48.128Z,39.43
2023-05-11T08:19:48.062Z,40.70
2023-05-11T08:20:48.085Z,41.79
2023-05-11T08:21:48.048Z,41.67
2023-05-11T08:22:48.037Z,40.86
2023-05-11T08:23:48.022Z,42.25
2023-05-11T08:24:48.027Z,40.07
2023-05-11T08:25:48.026Z,40.38
2023-05-11T08:26:48.698Z,41.00
2023-05-11T08:27:47.979Z,41.97
2023-05-11T08:28:47.972Z,41.46
2023-05-11T08:29:47.983Z,41.63
2023-05-11T08:30:47.965Z,40.62
2023-05-11T08:31:48.077Z,39.69
2023-05-11T08:32:57.868Z,39.71
2023-05-11T08:33:49.006Z,39.71
2023-05-11T08:34:48.047Z,40.01
2023-05-11T08:35:47.902Z,39.73
2023-05-11T08:36:47.912Z,41.12
2023-05-11T08:37:47.876Z,40.60
2023-05-11T08:38:47.865Z,40.70
2023-05-11T08:39:48.162Z,40.90
2023-05-11T08:40:47.842Z,41.31
2023-05-11T08:41:47.863Z,41.00
2023-05-11T08:42:47.835Z,39.61
2023-05-11T08:43:47.816Z,41.22
2023-05-11T08:44:47.806Z,41.12
2023-05-11T08:45:47.853Z,41.12
2023-05-11T08:46:47.818Z,40.50
2023-05-11T08:47:47.804Z,40.72
2023-05-11T08:48:47.769Z,41.31
2023-05-11T08:49:47.758Z,40.15
2023-05-11T08:50:47.760Z,41.36
2023-05-11T08:51:47.732Z,41.46
2023-05-11T08:52:47.731Z,41.26
2023-05-11T08:53:47.714Z,41.46
2023-05-11T08:54:47.768Z,41.17
2023-05-11T08:55:47.714Z,41.17
2023-05-11T08:56:47.695Z,43.84
2023-05-11T08:57:47.674Z,42.13
2023-05-11T08:58:47.659Z,40.94
2023-05-11T08:59:47.672Z,41.44
2023-05-11T09:00:47.640Z,41.14
2023-05-11T09:01:47.647Z,41.93
2023-05-11T09:02:47.676Z,40.94
2023-05-11T09:03:47.628Z,40.84
2023-05-11T09:04:49.193Z,41.04
2023-05-11T09:05:47.622Z,40.62
2023-05-11T09:06:47.579Z,40.52
2023-05-11T09:07:47.591Z,40.60
2023-05-11T09:08:47.591Z,39.29
2023-05-11T09:09:47.639Z,40.19
2023-05-11T09:10:47.545Z,38.80
2023-05-11T09:11:47.547Z,39.18
2023-05-11T09:12:47.568Z,39.65
2023-05-11T09:13:47.517Z,38.86
2023-05-11T09:14:47.540Z,39.73
2023-05-11T09:15:47.536Z,38.65
2023-05-11T09:16:47.498Z,38.53
2023-05-11T09:17:47.526Z,37.45
2023-05-11T09:18:47.597Z,37.54
2023-05-11T09:19:47.465Z,37.03
2023-05-11T09:20:47.434Z,35.94
2023-05-11T09:21:47.468Z,35.37
2023-05-11T09:22:47.418Z,36.36
2023-05-11T09:23:47.411Z,36.08
2023-05-11T09:24:47.397Z,37.26
2023-05-11T09:25:47.389Z,36.79
2023-05-11T09:26:47.408Z,37.48
2023-05-11T09:27:47.417Z,37.60
2023-05-11T09:28:47.517Z,37.91
2023-05-11T09:29:51.821Z,37.00
2023-05-11T09:30:47.340Z,36.80
2023-05-11T09:31:47.445Z,37.68
2023-05-11T09:32:47.339Z,35.68
2023-05-11T09:33:47.333Z,35.19
2023-05-11T09:34:47.315Z,34.97
2023-05-11T09:35:47.347Z,34.73
2023-05-11T09:36:47.277Z,34.36
2023-05-11T09:37:47.303Z,34.66
2023-05-11T09:38:47.258Z,36.82
2023-05-11T09:40:48.237Z,37.32
2023-05-11T09:41:47.225Z,36.71
2023-05-11T09:42:47.228Z,36.69
2023-05-11T09:43:47.258Z,37.48
2023-05-11T09:44:47.196Z,37.49
2023-05-11T09:45:47.188Z,37.63
2023-05-11T09:46:47.228Z,37.73
2023-05-11T09:47:49.001Z,37.83
2023-05-11T09:48:47.158Z,39.00
2023-05-11T09:49:47.158Z,37.71
2023-05-11T09:50:47.162Z,37.95
2023-05-11T09:51:47.148Z,38.98
2023-05-11T09:52:47.131Z,39.95
2023-05-11T09:53:47.133Z,40.08
2023-05-11T09:54:47.105Z,40.18
2023-05-11T09:55:47.083Z,41.47
2023-05-11T09:56:47.093Z,41.06
2023-05-11T09:57:47.057Z,41.55
2023-05-11T09:58:47.054Z,42.23
2023-05-11T09:59:47.043Z,41.24
2023-05-11T10:00:47.032Z,41.25
2023-05-11T10:01:47.119Z,41.34
2023-05-11T10:02:47.126Z,41.42
2023-05-11T10:03:47.188Z,40.50
2023-05-11T10:04:47.008Z,39.61
2023-05-11T10:05:46.981Z,40.20
2023-05-11T10:06:47.006Z,40.47
2023-05-11T10:07:46.956Z,39.06
2023-05-11T10:08:46.971Z,38.94
2023-05-11T10:09:46.935Z,38.66
2023-05-11T10:10:46.936Z,39.14
2023-05-11T10:11:46.956Z,38.36
2023-05-11T10:12:46.911Z,37.59
2023-05-11T10:13:46.896Z,37.60
2023-05-11T10:14:46.886Z,37.21
2023-05-11T10:15:46.926Z,39.33
2023-05-11T10:16:46.874Z,39.90
2023-05-11T10:17:46.884Z,37.13
2023-05-11T10:18:46.947Z,37.62
2023-05-11T10:19:46.851Z,37.84
2023-05-11T10:20:46.842Z,39.01
2023-05-11T10:21:46.814Z,38.60
2023-05-11T10:22:46.834Z,38.68
2023-05-11T10:23:46.790Z,39.98
2023-05-11T10:24:46.799Z,38.81
2023-05-11T10:25:46.771Z,38.81
2023-05-11T10:26:46.766Z,40.50
2023-05-11T10:27:46.752Z,38.93
2023-05-11T10:28:46.741Z,38.56
2023-05-11T10:29:46.784Z,38.99
2023-05-11T10:30:46.728Z,41.58
2023-05-11T10:31:46.729Z,39.80
2023-05-11T10:32:46.726Z,39.11
2023-05-11T10:33:49.095Z,40.30
2023-05-11T10:34:46.695Z,40.32
2023-05-11T10:35:46.661Z,39.23
2023-05-11T10:36:46.705Z,40.84
2023-05-11T10:37:46.651Z,41.53
2023-05-11T10:38:46.689Z,41.24
2023-05-11T10:39:49.205Z,40.12
2023-05-11T10:40:46.613Z,40.70
2023-05-11T10:41:46.603Z,39.50
2023-05-11T10:42:46.593Z,40.02
2023-05-11T10:43:46.607Z,40.32
2023-05-11T10:44:46.581Z,40.84
2023-05-11T10:45:46.591Z,40.84
2023-05-11T10:46:46.547Z,41.24
2023-05-11T10:47:46.661Z,40.14
2023-05-11T10:48:46.574Z,40.04
2023-05-11T10:49:46.510Z,39.86
2023-05-11T10:50:46.508Z,40.95
2023-05-11T10:51:46.508Z,41.36
2023-05-11T10:52:46.481Z,42.95
2023-05-11T10:53:46.471Z,42.73
2023-05-11T10:54:46.516Z,41.03
2023-05-11T10:55:47.201Z,43.03
2023-05-11T10:56:46.440Z,42.93
2023-05-11T10:57:46.427Z,43.73
2023-05-11T10:58:46.422Z,44.12
2023-05-11T10:59:46.407Z,41.93
2023-05-11T11:00:46.577Z,43.52
2023-05-11T11:01:46.454Z,41.74
2023-05-11T11:02:46.467Z,42.33
2023-05-11T11:03:46.365Z,42.15
2023-05-11T11:04:46.363Z,42.13
2023-05-11T11:05:46.392Z,41.16
2023-05-11T11:06:46.361Z,41.47
2023-05-11T11:07:46.335Z,41.50
2023-05-11T11:08:46.311Z,41.60
2023-05-11T11:09:46.297Z,42.10
2023-05-11T11:10:46.414Z,42.89
2023-05-11T11:11:46.304Z,41.50
2023-05-11T11:12:46.267Z,43.29
2023-05-11T11:13:46.265Z,43.77
2023-05-11T11:14:46.243Z,43.97
2023-05-11T11:15:46.232Z,43.17
2023-05-11T11:16:46.279Z,42.65
2023-05-11T11:17:46.218Z,42.37
2023-05-11T11:18:46.216Z,41.36
2023-05-11T11:19:46.194Z,43.17
2023-05-11T11:20:46.199Z,41.47
2023-05-11T11:21:46.208Z,42.47
2023-05-11T11:22:46.157Z,43.05
2023-05-11T11:23:46.141Z,43.35
2023-05-11T11:24:46.140Z,41.55
2023-05-11T11:26:56.074Z,42.05
2023-05-11T11:27:56.003Z,42.93
2023-05-11T11:28:56.026Z,40.94
2023-05-11T11:29:55.984Z,41.52
2023-05-11T11:30:56.035Z,40.82
2023-05-11T11:31:55.969Z,41.91
2023-05-11T11:32:55.977Z,41.91
2023-05-11T11:33:55.977Z,40.72
2023-05-11T11:34:55.928Z,40.34
2023-05-11T11:35:55.920Z,41.93
2023-05-11T11:36:55.953Z,40.66
2023-05-11T11:37:55.937Z,40.98
2023-05-11T11:38:55.920Z,41.17
2023-05-11T11:40:05.547Z,41.39
2023-05-11T11:40:57.141Z,42.07
2023-05-11T11:41:55.854Z,42.07
2023-05-11T11:42:55.855Z,42.40
2023-05-11T11:43:55.848Z,41.08
2023-05-11T11:44:55.880Z,40.68
2023-05-11T11:45:55.861Z,40.68
2023-05-11T11:46:55.940Z,40.38
2023-05-11T11:47:55.838Z,40.38
2023-05-11T11:48:55.781Z,39.10
2023-05-11T11:49:55.783Z,39.32
2023-05-11T11:50:55.756Z,39.62
2023-05-11T11:51:55.791Z,39.92
2023-05-11T11:52:55.755Z,40.10
2023-05-11T11:53:55.726Z,40.89
2023-05-11T11:54:55.707Z,40.00
2023-05-11T11:55:55.705Z,37.79
2023-05-11T11:56:55.713Z,38.31
2023-05-11T11:57:55.749Z,39.00
2023-05-11T11:58:55.763Z,38.50
2023-05-11T11:59:55.652Z,39.80
2023-05-11T12:00:56.688Z,40.38
2023-05-11T12:01:55.655Z,38.18
2023-05-11T12:02:55.680Z,38.98
2023-05-11T12:03:55.904Z,39.98
2023-05-11T12:04:55.745Z,39.58
2023-05-11T12:05:55.589Z,39.60
2023-05-11T12:06:55.580Z,40.00
2023-05-11T12:07:55.581Z,40.50
2023-05-11T12:08:55.566Z,39.50
2023-05-11T12:09:55.634Z,39.00
2023-05-11T12:10:55.551Z,39.82
2023-05-11T12:11:55.531Z,40.01
2023-05-11T12:12:55.670Z,42.02
2023-05-11T12:13:55.532Z,41.22
2023-05-11T12:14:55.518Z,39.92
2023-05-11T12:15:55.478Z,40.73
2023-05-11T12:16:55.652Z,40.23
2023-05-11T12:17:55.528Z,41.53
2023-05-11T12:18:56.368Z,40.95
2023-05-11T12:19:55.451Z,40.95
2023-05-11T12:20:55.422Z,42.55
2023-05-11T12:21:55.412Z,42.24
2023-05-11T12:22:55.429Z,40.73
2023-05-11T12:23:55.422Z,40.25
2023-05-11T12:24:55.442Z,40.25
2023-05-11T12:25:55.551Z,40.53
2023-05-11T12:26:55.366Z,40.16
2023-05-11T12:27:55.457Z,40.45
2023-05-11T12:28:55.380Z,40.73
2023-05-11T12:29:55.351Z,40.95
2023-05-11T12:30:55.336Z,40.16
2023-05-11T12:31:55.377Z,41.14
2023-05-11T12:32:56.892Z,40.44
2023-05-11T12:33:55.295Z,39.86
2023-05-11T12:34:55.278Z,40.06
2023-05-11T12:35:55.273Z,40.16
2023-05-11T12:36:55.275Z,41.03
2023-05-11T12:37:55.269Z,39.74
2023-05-11T12:38:55.223Z,38.54
2023-05-11T12:39:55.220Z,38.34
2023-05-11T12:40:55.209Z,38.42
2023-05-11T12:41:55.254Z,38.92
2023-05-11T12:42:55.197Z,38.12
2023-05-11T12:43:55.193Z,39.22
2023-05-11T12:44:55.165Z,39.22
2023-05-11T12:45:55.201Z,39.72
2023-05-11T12:46:55.162Z,40.14
2023-05-11T12:47:55.272Z,41.33
2023-05-11T12:48:55.150Z,41.03
2023-05-11T12:49:55.113Z,40.64
2023-05-11T12:50:55.131Z,40.04
2023-05-11T12:51:55.122Z,40.22
2023-05-11T12:52:55.100Z,41.93
2023-05-11T12:53:55.106Z,41.46
2023-05-11T12:54:55.123Z,42.15